Tiempo atmosférico en la estación meteorológica de Aranjuez, Madrid (540 m.)



Fecha
DESCASC
Temp. máxima en grados centígrados (hora)
DESCASC
Temp. mínima en grados centígrados (hora)
DESCASC
Temp. media en grados centígrados
DESCASC
Racha de viento máxima en m/sg (hora)
DESCASC
Velocidad máxima media en intervalos de 10 minutos(hora)
DESCASC
Precipitaciones diarias en mm
DESCASC
Precipitaciones de 00:00 a 06:00 en mm
DESCASC
Precipitaciones de 06:00 a 12:00 en mm
DESCASC
Precipitaciones de 12:00 a 18:00 en mm
DESCASC
Precipitaciones de 18:00 a 24:00 en mm
DESCASC
18-01-2018 15 (17:00) -2.4 (08:30) 6.3 4.44 (13:10) 2.22 (14:50) 0 0 0 0 0
17-01-2018 13.7 (16:20) 0.6 (02:30) 7.1 6.94 (09:00) 5 (09:20) 0 0 0 0 0
16-01-2018 14.1 (16:10) -0.8 (08:00) 6.7 5.28 (14:50) 3.61 (11:10) 0 0 0 0 0
15-01-2018 10 (16:30) -3.3 (07:30) 3.4 3.89 (15:30) 1.67 (15:40) 0 0 0 0 0
14-01-2018 8.5 (15:00) -0.4 (00:00) 4 5.28 (11:40) 3.06 (11:40) 0 0 0 0 0
13-01-2018 7 (13:30) 0.6 (00:00) 3.8 8.06 (23:59) 3.61 (11:50) 2.6 0 0 2.5 0.1
12-01-2018 10.4 (16:40) -1.8 (-00:0) 4.3 4.17 (11:00) 3.33 (11:00) 0 0 0 0 0
11-01-2018 10.3 (14:30) 1.4 (00:00) 5.9 12.22 (13:10) 7.22 (13:10) 0 0 0 0 0
10-01-2018 8.6 (16:50) 3.8 (00:00) 6.2 6.67 (17:50) 3.33 (12:40) 0.2 0.1 0 0 0.1
09-01-2018 6.5 (15:50) -2 (-00:0) 2.3 5.83 (10:00) 3.89 (10:00) 0.6 0 0 0 0.6
08-01-2018 8.9 (16:30) -1.5 (-00:0) 3.7 3.33 (00:20) 2.22 (00:20) 0.1 0.1 0 0 0
07-01-2018 -- (--) -- (--) -- -- (--) -- (--) -- -- -- -- --
06-01-2018 -- (--) -- (--) -- -- (--) -- (--) -- 4.4 4.8 2.4 --
05-01-2018 14 (12:10) 8.7 (00:00) 11.3 10 (13:00) 3.61 (12:50) 8.7 0 0 0.3 8.4
04-01-2018 14.9 (15:30) 5.5 (04:10) 10.2 9.72 (15:40) 5 (15:40) 0 0 0 0 0
03-01-2018 13.9 (14:50) 8.5 (00:00) 11.2 7.22 (07:30) 3.33 (16:00) 0 0 0 0 0
02-01-2018 13.1 (15:40) 4.2 (00:00) 8.7 7.78 (02:10) 4.17 (02:10) 0 0 0 0 0
01-01-2018 11.6 (16:20) -0.2 (00:00) 5.7 11.67 (14:30) 6.11 (15:00) 0 0 0 0 0
31-12-2017 13.5 (14:10) 4.9 (00:00) 9.2 12.22 (19:20) 5.83 (19:00) 2.4 0 0 0 2.4
30-12-2017 16.1 (16:00) 5.3 (00:00) 10.7 5.83 (12:40) 3.61 (23:59) 0.5 0.4 0.1 0 0
29-12-2017 16.6 (15:20) 8.9 (00:00) 12.8 11.39 (12:40) 5.83 (12:30) 0 0 0 0 0
28-12-2017 14.3 (16:00) 6.9 (00:00) 10.6 11.94 (15:40) 6.39 (15:20) 0 0 0 0 0
27-12-2017 12 (15:00) 5.6 (00:00) 8.8 13.89 (05:00) 7.5 (05:00) 2.6 2.5 0.1 0 0
26-12-2017 8.4 (23:20) 5.2 (00:00) 6.8 13.89 (23:00) 3.89 (14:50) 2.5 2.5 0 0 0
25-12-2017 8.2 (16:00) -0.9 (-00:0) 3.6 5.83 (11:40) 4.17 (11:40) 0.3 0 0 0.1 0.2
24-12-2017 10.2 (15:30) -1.7 (-00:0) 4.2 3.89 (15:40) 1.94 (07:50) 0 0 0 0 0
23-12-2017 14.8 (15:00) -2.7 (-00:0) 6.1 6.94 (20:30) 4.44 (20:30) 0 0 0 0 0
22-12-2017 12.9 (16:40) -2.7 (-00:0) 5.1 5.56 (09:50) 3.06 (09:50) 0 0 0 0 0

Gráficas

Temp. máximas Temp. mínimas Temp. medias Precipitaciones Rachas de viento máximas Velocidades máximas media en intervalos de 10 minutos

Datos horarios

Fecha y hora oficial Temperatura (ºC) Velocidad del viento (km/h) Dirección del viento Racha (km/h) Dirección de racha Precipitación (mm) Presión (hPa) Tendencia (hPa) Humedad (%)
2018-01-20 23:00:00 2.9 2 Noroeste 7 Noroeste 0 -- -- 78
2018-01-20 22:00:00 3.8 4 Noroeste 8 Noroeste 0 -- -- 71
2018-01-20 21:00:00 6 6 Noroeste 11 Noroeste 0 -- -- 62
2018-01-20 20:00:00 8.8 0 Calma 18 Noroeste 0 -- -- 53
2018-01-20 19:00:00 9.6 0 Calma 17 Oeste 0 -- -- 50
2018-01-20 18:00:00 11.9 9 Oeste 20 Noroeste 0 -- -- 45
2018-01-20 17:00:00 13.5 9 Oeste 22 Oeste 0 -- -- 44
2018-01-20 16:00:00 13.6 10 Oeste 24 Oeste 0 -- -- 44
2018-01-20 15:00:00 12 7 Sudoeste 15 Sudoeste 0 -- -- 52
2018-01-20 14:00:00 11.3 6 Oeste 16 Oeste 0 -- -- 59
2018-01-20 13:00:00 9.7 6 Oeste 12 Oeste 0 -- -- 63
2018-01-20 12:00:00 6.7 0 Calma 8 Sur 0 -- -- 73
2018-01-20 11:00:00 5.5 3 Sudeste 14 Sudeste 0 -- -- 80
2018-01-20 10:00:00 2.4 9 Este 13 Este 0 -- -- 88
2018-01-20 09:00:00 0.3 4 Este 13 Este 0 -- -- 91
2018-01-20 08:00:00 0 3 Sudeste 13 Sudeste 0 -- -- 91
2018-01-20 07:00:00 -0.1 8 Este 14 Este 0 -- -- 91
2018-01-20 06:00:00 -0.2 6 Este 10 Sudeste 0 -- -- 91
2018-01-20 05:00:00 0.3 5 Este 14 Este 0 -- -- 91
2018-01-20 04:00:00 0.4 6 Este 10 Sudeste 0 -- -- 91
2018-01-20 03:00:00 0.3 0 Calma 8 Noroeste 0 -- -- 90
2018-01-20 02:00:00 0.5 0 Calma 6 Norte 0 -- -- 88
2018-01-20 01:00:00 2.2 3 Este 9 Noroeste 0 -- -- 87
2018-01-20 00:00:00 2.1 5 Noroeste 11 Noroeste 0 -- -- 84
2018-01-19 23:00:00 3 4 Norte 10 Noroeste 0 -- -- 81
2018-01-19 22:00:00 3.7 3 Norte 9 Norte 0 -- -- 78
2018-01-19 21:00:00 4.8 3 Norte 7 Noroeste 0 -- -- 74
2018-01-19 20:00:00 5.9 6 Noroeste 9 Noroeste 0 -- -- 68
2018-01-19 19:00:00 8.1 5 Noroeste 8 Noroeste 0 -- -- 55
2018-01-19 18:00:00 13.5 3 Oeste 11 Oeste 0 -- -- 41
2018-01-19 17:00:00 15.4 4 Noroeste 16 Noroeste 0 -- -- 38
2018-01-19 16:00:00 15.5 6 Oeste 13 Oeste 0 -- -- 39
2018-01-19 15:00:00 14.4 7 Noroeste 14 Noroeste 0 -- -- 43
2018-01-19 14:00:00 12.6 5 Oeste 12 Oeste 0 -- -- 49
2018-01-19 13:00:00 9.4 4 Oeste 10 Oeste 0 -- -- 59
2018-01-19 12:00:00 6.5 3 Oeste 7 Oeste 0 -- -- 73
2018-01-19 11:00:00 3.4 3 Sur 7 Sur 0 -- -- 89
2018-01-19 10:00:00 0 0 Calma 4 Norte 0 -- -- 92
2018-01-19 09:00:00 -2 3 Norte 6 Norte 0 -- -- 91
2018-01-19 08:00:00 -1.9 0 Calma 5 Sudoeste 0 -- -- 91
2018-01-19 07:00:00 -1.6 2 Nordeste 4 Este 0 -- -- 91
2018-01-19 06:00:00 -1.1 0 Calma 5 Nordeste 0 -- -- 91
2018-01-19 05:00:00 -1 0 Calma 4 Nordeste 0 -- -- 90
2018-01-19 04:00:00 -0.6 0 Calma 6 Norte 0 -- -- 89
2018-01-19 03:00:00 0.8 3 Este 8 Este 0 -- -- 88
2018-01-19 02:00:00 0.3 2 Sudeste 5 Noroeste 0 -- -- 86
2018-01-19 01:00:00 2.7 4 Este 10 Sudeste 0 -- -- 86
2018-01-19 00:00:00 2.2 7 Este 13 Este 0 -- -- 85
2018-01-18 23:00:00 2.7 0 Calma 9 Este 0 -- -- 84
2018-01-18 22:00:00 3.1 3 Este 4 Noroeste 0 -- -- 84
2018-01-18 21:00:00 3.5 2 Nordeste 5 Este 0 -- -- 79
2018-01-18 20:00:00 5.3 0 Calma 4 Norte 0 -- -- 71
2018-01-18 19:00:00 7.9 0 Calma 8 Norte 0 -- -- 62
2018-01-18 18:00:00 12.5 4 Norte 8 Norte 0 -- -- 45
2018-01-18 17:00:00 14.8 3 Nordeste 14 Sudeste 0 -- -- 38
2018-01-18 16:00:00 14.4 6 Este 15 Sudeste 0 -- -- 38
2018-01-18 15:00:00 13.7 8 Sudeste 15 Sudeste 0 -- -- 42
2018-01-18 14:00:00 12.4 8 Sudeste 16 Sudeste 0 -- -- 53
2018-01-18 13:00:00 10 6 Este 10 Sudeste 0 -- -- 58
2018-01-18 12:00:00 7.2 3 Sur 8 Sudeste 0 -- -- 68
2018-01-18 11:00:00 4.4 2 Sudeste 7 Sur 0 -- -- 80
2018-01-18 10:00:00 1.1 4 Este 10 Sudeste 0 -- -- 91
2018-01-18 09:00:00 -1.5 4 Este 6 Este 0 -- -- 91
2018-01-18 08:00:00 -1.9 0 Calma 3 Este 0 -- -- 91
2018-01-18 07:00:00 -1.7 0 Calma 6 Sur 0 -- -- 90
2018-01-18 06:00:00 -0.9 0 Calma 6 Nordeste 0 -- -- 89
2018-01-18 05:00:00 -0.4 0 Calma 11 Nordeste 0 -- -- 88
2018-01-18 04:00:00 0 4 Nordeste 6 Nordeste 0 -- -- 88
2018-01-18 03:00:00 0.4 2 Este 11 Sur 0 -- -- 87
2018-01-18 02:00:00 1.4 4 Sudeste 11 Nordeste 0 -- -- 87
2018-01-18 01:00:00 1.1 3 Este 7 Sudeste 0 -- -- 87
2018-01-18 00:00:00 1 2 Nordeste 6 Sur 0 -- -- 86
2018-01-17 23:00:00 1.9 4 Norte 8 Norte 0 -- -- 84
2018-01-17 22:00:00 3.9 0 Calma 9 Este 0 -- -- 83
2018-01-17 21:00:00 5.1 3 Este 9 Este 0 -- -- 81
2018-01-17 20:00:00 6.1 2 Norte 8 Este 0 -- -- 76
2018-01-17 19:00:00 7.7 3 Este 7 Sudeste 0 -- -- 67
2018-01-17 18:00:00 12 4 Este 8 Sudeste 0 -- -- 55
2018-01-17 17:00:00 13.5 3 Sudeste 10 Sudeste 0 -- -- 51
2018-01-17 16:00:00 13.5 3 Sur 9 Sudeste 0 -- -- 53
2018-01-17 15:00:00 11.9 5 Sudeste 13 Este 0 -- -- 67
2018-01-17 14:00:00 8.2 8 Sudeste 17 Sudeste 0 -- -- 93
2018-01-17 13:00:00 6.4 10 Este 19 Este 0 -- -- 93
2018-01-17 12:00:00 5 12 Este 21 Sudeste 0 -- -- 93
2018-01-17 11:00:00 3.4 17 Este 24 Sudeste 0 -- -- 94
2018-01-17 10:00:00 2.7 18 Sudeste 25 Sudeste 0 -- -- 94
2018-01-17 09:00:00 2.7 17 Este 25 Este 0 -- -- 94
2018-01-17 08:00:00 2.7 13 Este 20 Sudeste 0 -- -- 94
2018-01-17 07:00:00 2.9 13 Este 19 Sudeste 0 -- -- 93
2018-01-17 06:00:00 3 9 Este 14 Este 0 -- -- 93
2018-01-17 05:00:00 2.4 5 Este 10 Sudeste 0 -- -- 93
2018-01-17 04:00:00 2 4 Este 9 Sudeste 0 -- -- 92
2018-01-17 03:00:00 1 4 Sudeste 9 Sudeste 0 -- -- 92
2018-01-17 02:00:00 1.3 3 Este 8 Sur 0 -- -- 91
2018-01-17 01:00:00 2.6 4 Este 6 Este 0 -- -- 91
2018-01-17 00:00:00 2.7 3 Noroeste 6 Noroeste 0 -- -- 91
2018-01-16 23:00:00 2.9 4 Noroeste 7 Noroeste 0 -- -- 89
2018-01-16 22:00:00 3.4 0 Calma 5 Noroeste 0 -- -- 87
2018-01-16 21:00:00 4.1 0 Calma 4 Norte 0 -- -- 83
2018-01-16 20:00:00 6.6 0 Calma 6 Oeste 0 -- -- 76
2018-01-16 19:00:00 8.8 3 Noroeste 6 Sudoeste 0 -- -- 66
2018-01-16 18:00:00 12.2 2 Sudoeste 10 Oeste 0 -- -- 56
2018-01-16 17:00:00 14.1 4 Sudoeste 13 Oeste 0 -- -- 51
2018-01-16 16:00:00 13.9 5 Sudoeste 14 Oeste 0 -- -- 52
2018-01-16 15:00:00 12.9 5 Sudoeste 19 Sudoeste 0 -- -- 52
2018-01-16 14:00:00 11.6 6 Oeste 14 Oeste 0 -- -- 52
2018-01-16 13:00:00 9.9 3 Sudeste 12 Sudeste 0 -- -- 58
2018-01-16 12:00:00 7.1 7 Sudeste 17 Sudeste 0 -- -- 70
2018-01-16 11:00:00 4.5 10 Sudeste 15 Sudeste 0 -- -- 77
2018-01-16 10:00:00 1.6 12 Este 16 Sudeste 0 -- -- 86
2018-01-16 09:00:00 -0.1 12 Este 18 Este 0 -- -- 90
2018-01-16 08:00:00 -0.7 8 Este 15 Este 0 -- -- 89
2018-01-16 07:00:00 -0.3 7 Este 16 Este 0 -- -- 89
2018-01-16 06:00:00 -0.4 8 Este 18 Este 0 -- -- 89
2018-01-16 05:00:00 -0.1 10 Este 16 Este 0 -- -- 89
2018-01-16 04:00:00 0.5 4 Este 12 Este 0 -- -- 89
2018-01-16 03:00:00 0.5 4 Este 7 Este 0 -- -- 89
2018-01-16 02:00:00 0.3 5 Este 8 Este 0 -- -- 89
2018-01-16 01:00:00 0.1 0 Calma 6 Sudeste 0 -- -- 88
2018-01-16 00:00:00 1.2 3 Este 9 Este 0 -- -- 88
2018-01-15 23:00:00 0.5 3 Este 7 Sudeste 0 -- -- 87
2018-01-15 22:00:00 0.6 0 Calma 6 Este 0 -- -- 85
2018-01-15 21:00:00 1.7 3 Este 6 Este 0 -- -- 81
2018-01-15 20:00:00 3.2 3 Este 4 Este 0 -- -- 75
2018-01-15 19:00:00 5.9 0 Calma 6 Oeste 0 -- -- 65
2018-01-15 18:00:00 8.2 4 Oeste 12 Sudoeste 0 -- -- 55
2018-01-15 17:00:00 9.9 6 Oeste 13 Oeste 0 -- -- 49
2018-01-15 16:00:00 9.3 5 Oeste 14 Oeste 0 -- -- 51
2018-01-15 15:00:00 9.2 5 Oeste 11 Oeste 0 -- -- 52
2018-01-15 14:00:00 7.5 4 Oeste 11 Sudoeste 0 -- -- 62
2018-01-15 13:00:00 6.4 4 Sudoeste 9 Sudoeste 0 -- -- 75
2018-01-15 12:00:00 3.1 5 Oeste 9 Oeste 0 -- -- 92
2018-01-15 11:00:00 0 4 Oeste 7 Sudoeste 0 -- -- 93
2018-01-15 10:00:00 -1.9 3 Noroeste 7 Oeste 0 -- -- 92
2018-01-15 09:00:00 -2.8 0 Calma 5 Sudeste 0 -- -- 92
2018-01-15 08:00:00 -2.8 0 Calma 5 Noroeste 0 -- -- 91
2018-01-15 07:00:00 -2.6 0 Calma 4 Sudeste 0 -- -- 92
2018-01-15 06:00:00 -2.3 2 Sur 6 Norte 0 -- -- 91
2018-01-15 05:00:00 -2.2 0 Calma 3 Norte 0 -- -- 91
2018-01-15 04:00:00 -1.7 0 Calma 4 Norte 0 -- -- 91
2018-01-15 03:00:00 -1.6 0 Calma 7 Nordeste 0 -- -- 90
2018-01-15 02:00:00 -1.1 0 Calma 5 Este 0 -- -- 89
2018-01-15 01:00:00 -0.3 0 Calma 5 Noroeste 0 -- -- 88
2018-01-15 00:00:00 -0.3 0 Calma 7 Norte 0 -- -- 87
2018-01-14 23:00:00 0.1 0 Calma 5 Sudeste 0 -- -- 84
2018-01-14 22:00:00 1.8 0 Calma 14 Nordeste 0 -- -- 82
2018-01-14 21:00:00 2.2 4 Nordeste 10 Nordeste 0 -- -- 84
2018-01-14 20:00:00 2.4 4 Oeste 9 Noroeste 0 -- -- 82
2018-01-14 19:00:00 3.4 0 Calma 6 Norte 0 -- -- 78
2018-01-14 18:00:00 5.3 4 Noroeste 8 Oeste 0 -- -- 68
2018-01-14 17:00:00 8.4 3 Sudoeste 6 Sudoeste 0 -- -- 60
2018-01-14 16:00:00 6.5 0 Calma 13 Noroeste 0 -- -- 65
2018-01-14 15:00:00 8.4 0 Calma 8 Norte 0 -- -- 61
2018-01-14 14:00:00 6.7 4 Oeste 15 Oeste 0 -- -- 67
2018-01-14 13:00:00 6.8 5 Sudoeste 14 Oeste 0 -- -- 70
2018-01-14 12:00:00 6.1 10 Noroeste 19 Oeste 0 -- -- 74
2018-01-14 11:00:00 5.7 8 Oeste 18 Oeste 0 -- -- 84
2018-01-14 10:00:00 4.9 4 Oeste 9 Sudoeste 0 -- -- 92
2018-01-14 09:00:00 3.2 4 Noroeste 12 Noroeste 0 -- -- 92
2018-01-14 08:00:00 4.1 4 Oeste 11 Oeste 0 -- -- 92
2018-01-14 07:00:00 4.2 2 Sudoeste 6 Noroeste 0 -- -- 91
2018-01-14 06:00:00 4.1 3 Oeste 8 Noroeste 0 -- -- 91
2018-01-14 05:00:00 3.3 2 Oeste 7 Oeste 0 -- -- 91
2018-01-14 04:00:00 3.7 4 Oeste 8 Oeste 0 -- -- 90
2018-01-14 03:00:00 3.5 3 Sudoeste 7 Oeste 0 -- -- 90
2018-01-14 02:00:00 4 4 Sudoeste 9 Sudoeste 0 -- -- 90
2018-01-14 01:00:00 4 3 Sudoeste 15 Oeste 0 -- -- 90
2018-01-14 00:00:00 3.8 8 Oeste 29 Oeste 0 -- -- 91
2018-01-13 23:00:00 3.6 4 Sudoeste 14 Oeste 0 -- -- 91
2018-01-13 22:00:00 3.5 6 Oeste 14 Noroeste 0.1 -- -- 91
2018-01-13 21:00:00 3.5 4 Sudoeste 7 Oeste 0 -- -- 91
2018-01-13 20:00:00 3.8 3 Sudoeste 7 Sudoeste 0 -- -- 90
2018-01-13 19:00:00 3.8 5 Norte 15 Norte 0 -- -- 90
2018-01-13 18:00:00 4 7 Norte 13 Norte 0.8 -- -- 89
2018-01-13 17:00:00 4.3 6 Noroeste 10 Noroeste 0.6 -- -- 86
2018-01-13 16:00:00 -- 0 Calma 10 Sudeste 0.4 -- -- --
2018-01-13 15:00:00 5 4 Noroeste 16 Noroeste 0.7 -- -- 77
2018-01-13 14:00:00 6.1 8 Noroeste 13 Oeste 0 -- -- 71
2018-01-13 13:00:00 6.6 4 Sudeste 16 Sudeste 0 -- -- 69
2018-01-13 12:00:00 5.1 13 Sudeste 17 Sudeste 0 -- -- 75
2018-01-13 11:00:00 3.4 6 Sudeste 10 Sudeste 0 -- -- 87
2018-01-13 10:00:00 1.3 7 Sudeste 18 Sudeste 0 -- -- 87
2018-01-13 09:00:00 0.8 8 Este 13 Sudeste 0 -- -- 88
2018-01-13 08:00:00 0.8 9 Sudeste 18 Sudeste 0 -- -- 88
2018-01-13 07:00:00 0.8 9 Este 16 Sudeste 0 -- -- 88
2018-01-13 06:00:00 0.8 8 Este 13 Sudeste 0 -- -- 87
2018-01-13 05:00:00 0.9 10 Este 18 Sudeste 0 -- -- 87
2018-01-13 04:00:00 1.2 9 Este 17 Sudeste 0 -- -- 86
2018-01-13 03:00:00 1.4 9 Este 15 Sudeste 0 -- -- 86
2018-01-13 02:00:00 1.2 10 Sudeste 16 Este 0 -- -- 84
2018-01-13 01:00:00 1.3 10 Este 15 Este 0 -- -- 81
2018-01-13 00:00:00 2.3 5 Este 12 Este 0 -- -- 78
2018-01-12 23:00:00 3 7 Este 10 Sudeste 0 -- -- 76
2018-01-12 22:00:00 3.4 6 Este 11 Este 0 -- -- 75
2018-01-12 21:00:00 4.2 3 Este 7 Este 0 -- -- 72
2018-01-12 20:00:00 4.5 4 Sudeste 6 Sudeste 0 -- -- 74
2018-01-12 19:00:00 4.9 3 Noroeste 6 Noroeste 0 -- -- 67
2018-01-12 18:00:00 8.2 2 Oeste 6 Oeste 0 -- -- 51
2018-01-12 17:00:00 -- -- -- -- -- -- -- -- --
2018-01-12 16:00:00 -- -- -- -- -- -- -- -- --
2018-01-12 15:00:00 -- -- -- -- -- -- -- -- --
2018-01-12 14:00:00 -- -- -- -- -- -- -- -- --
2018-01-12 13:00:00 -- -- -- -- -- -- -- -- --
2018-01-12 12:00:00 -- -- -- -- -- -- -- -- --
2018-01-12 11:00:00 -- -- -- -- -- -- -- -- --
2018-01-12 10:00:00 -- -- -- -- -- -- -- -- --
2018-01-12 09:00:00 -- -- -- -- -- -- -- -- --
2018-01-12 08:00:00 -- -- -- -- -- -- -- -- --
2018-01-12 07:00:00 -- -- -- -- -- -- -- -- --
2018-01-12 06:00:00 -- -- -- -- -- -- -- -- --
2018-01-12 05:00:00 -- -- -- -- -- -- -- -- --
2018-01-12 04:00:00 -- -- -- -- -- -- -- -- --
2018-01-12 03:00:00 -- -- -- -- -- -- -- -- --
2018-01-12 02:00:00 -- -- -- -- -- -- -- -- --
2018-01-12 01:00:00 -- -- -- -- -- -- -- -- --
2018-01-12 00:00:00 -- -- -- -- -- -- -- -- --
2018-01-11 23:00:00 -- -- -- -- -- -- -- -- --
2018-01-11 22:00:00 -- -- -- -- -- -- -- -- --
2018-01-11 21:00:00 -- -- -- -- -- -- -- -- --
2018-01-11 20:00:00 -- -- -- -- -- -- -- -- --
2018-01-11 19:00:00 -- -- -- -- -- -- -- -- --
2018-01-11 18:00:00 -- -- -- -- -- -- -- -- --
2018-01-11 17:00:00 -- -- -- -- -- -- -- -- --
2018-01-11 16:00:00 -- -- -- -- -- -- -- -- --
2018-01-11 15:00:00 -- -- -- -- -- -- -- -- --
2018-01-11 14:00:00 -- -- -- -- -- -- -- -- --
2018-01-11 13:00:00 -- -- -- -- -- -- -- -- --
2018-01-11 12:00:00 -- -- -- -- -- -- -- -- --
2018-01-11 11:00:00 -- -- -- -- -- -- -- -- --
2018-01-11 10:00:00 -- -- -- -- -- -- -- -- --
2018-01-11 09:00:00 -- -- -- -- -- -- -- -- --
2018-01-11 08:00:00 -- -- -- -- -- -- -- -- --
2018-01-11 07:00:00 -- -- -- -- -- -- -- -- --
2018-01-11 06:00:00 -- -- -- -- -- -- -- -- --
2018-01-11 05:00:00 -- -- -- -- -- -- -- -- --
2018-01-11 04:00:00 -- -- -- -- -- -- -- -- --
2018-01-11 03:00:00 -- -- -- -- -- -- -- -- --
2018-01-11 02:00:00 -- -- -- -- -- -- -- -- --
2018-01-11 01:00:00 -- -- -- -- -- -- -- -- --
2018-01-11 00:00:00 -- -- -- -- -- -- -- -- --
2018-01-10 23:00:00 -- -- -- -- -- -- -- -- --
2018-01-10 22:00:00 -- -- -- -- -- -- -- -- --
2018-01-10 21:00:00 -- -- -- -- -- -- -- -- --
2018-01-10 20:00:00 -- -- -- -- -- -- -- -- --
2018-01-10 19:00:00 -- -- -- -- -- -- -- -- --
2018-01-10 18:00:00 -- -- -- -- -- -- -- -- --
2018-01-10 17:00:00 -- -- -- -- -- -- -- -- --
2018-01-10 16:00:00 -- -- -- -- -- -- -- -- --
2018-01-10 15:00:00 -- -- -- -- -- -- -- -- --
2018-01-10 14:00:00 -- -- -- -- -- -- -- -- --
2018-01-10 13:00:00 -- -- -- -- -- -- -- -- --
2018-01-10 12:00:00 -- -- -- -- -- -- -- -- --
2018-01-10 11:00:00 -- -- -- -- -- -- -- -- --
2018-01-10 10:00:00 -- -- -- -- -- -- -- -- --
2018-01-10 09:00:00 -- -- -- -- -- -- -- -- --
2018-01-10 08:00:00 -- -- -- -- -- -- -- -- --
2018-01-10 07:00:00 -- -- -- -- -- -- -- -- --
2018-01-10 06:00:00 -- -- -- -- -- -- -- -- --
2018-01-10 05:00:00 -- -- -- -- -- -- -- -- --
2018-01-10 04:00:00 -- -- -- -- -- -- -- -- --
2018-01-10 03:00:00 -- -- -- -- -- -- -- -- --
2018-01-10 02:00:00 -- -- -- -- -- -- -- -- --
2018-01-10 01:00:00 -- -- -- -- -- -- -- -- --
2018-01-10 00:00:00 -- -- -- -- -- -- -- -- --
2018-01-09 23:00:00 -- -- -- -- -- -- -- -- --
2018-01-09 22:00:00 -- -- -- -- -- -- -- -- --
2018-01-09 21:00:00 -- -- -- -- -- -- -- -- --
2018-01-09 20:00:00 -- -- -- -- -- -- -- -- --
2018-01-09 19:00:00 -- -- -- -- -- -- -- -- --
2018-01-09 18:00:00 -- -- -- -- -- -- -- -- --
2018-01-09 17:00:00 -- -- -- -- -- -- -- -- --
2018-01-09 16:00:00 -- -- -- -- -- -- -- -- --
2018-01-09 15:00:00 -- -- -- -- -- -- -- -- --
2018-01-09 14:00:00 -- -- -- -- -- -- -- -- --
2018-01-09 13:00:00 -- -- -- -- -- -- -- -- --
2018-01-09 12:00:00 -- -- -- -- -- -- -- -- --
2018-01-09 11:00:00 -- -- -- -- -- -- -- -- --
2018-01-09 10:00:00 -- -- -- -- -- -- -- -- --
2018-01-09 09:00:00 -- -- -- -- -- -- -- -- --
2018-01-09 08:00:00 -- -- -- -- -- -- -- -- --
2018-01-09 07:00:00 -- -- -- -- -- -- -- -- --
2018-01-09 06:00:00 -- -- -- -- -- -- -- -- --
2018-01-09 05:00:00 -- -- -- -- -- -- -- -- --
2018-01-09 04:00:00 -- -- -- -- -- -- -- -- --
2018-01-09 03:00:00 -- -- -- -- -- -- -- -- --
2018-01-09 02:00:00 -- -- -- -- -- -- -- -- --
2018-01-09 01:00:00 -- -- -- -- -- -- -- -- --
2018-01-09 00:00:00 -- -- -- -- -- -- -- -- --
2018-01-08 23:00:00 -- -- -- -- -- -- -- -- --
2018-01-08 22:00:00 -- -- -- -- -- -- -- -- --
2018-01-08 21:00:00 -- -- -- -- -- -- -- -- --
2018-01-08 20:00:00 -- -- -- -- -- -- -- -- --
2018-01-08 19:00:00 -- -- -- -- -- -- -- -- --
2018-01-08 18:00:00 -- -- -- -- -- -- -- -- --
2018-01-08 17:00:00 -- -- -- -- -- -- -- -- --
2018-01-08 16:00:00 -- -- -- -- -- -- -- -- --
2018-01-08 15:00:00 -- -- -- -- -- -- -- -- --
2018-01-08 14:00:00 -- -- -- -- -- -- -- -- --
2018-01-08 13:00:00 -- -- -- -- -- -- -- -- --
2018-01-08 12:00:00 -- -- -- -- -- -- -- -- --
2018-01-08 11:00:00 -- -- -- -- -- -- -- -- --
2018-01-08 10:00:00 -- -- -- -- -- -- -- -- --
2018-01-08 09:00:00 -- -- -- -- -- -- -- -- --
2018-01-08 08:00:00 -- -- -- -- -- -- -- -- --
2018-01-08 07:00:00 -- -- -- -- -- -- -- -- --
2018-01-08 06:00:00 -- -- -- -- -- -- -- -- --
2018-01-08 05:00:00 -- -- -- -- -- -- -- -- --
2018-01-08 04:00:00 -- -- -- -- -- -- -- -- --
2018-01-08 03:00:00 -- -- -- -- -- -- -- -- --
2018-01-08 02:00:00 -- -- -- -- -- -- -- -- --
2018-01-08 01:00:00 -- -- -- -- -- -- -- -- --
2018-01-08 00:00:00 -- -- -- -- -- -- -- -- --
2018-01-07 23:00:00 -- -- -- -- -- -- -- -- --
2018-01-07 22:00:00 -- -- -- -- -- -- -- -- --
2018-01-07 21:00:00 -- -- -- -- -- -- -- -- --
2018-01-07 20:00:00 -- -- -- -- -- -- -- -- --
2018-01-07 19:00:00 -- -- -- -- -- -- -- -- --
2018-01-07 18:00:00 -- -- -- -- -- -- -- -- --
2018-01-07 17:00:00 -- -- -- -- -- -- -- -- --
2018-01-07 16:00:00 -- -- -- -- -- -- -- -- --
2018-01-07 15:00:00 -- -- -- -- -- -- -- -- --
2018-01-07 14:00:00 -- -- -- -- -- -- -- -- --
2018-01-07 13:00:00 -- -- -- -- -- -- -- -- --
2018-01-07 12:00:00 -- -- -- -- -- -- -- -- --
2018-01-07 11:00:00 -- -- -- -- -- -- -- -- --
2018-01-07 10:00:00 -- -- -- -- -- -- -- -- --
2018-01-07 09:00:00 -- -- -- -- -- -- -- -- --
2018-01-07 08:00:00 -- -- -- -- -- -- -- -- --
2018-01-07 07:00:00 -- -- -- -- -- -- -- -- --
2018-01-07 06:00:00 -- -- -- -- -- -- -- -- --
2018-01-07 05:00:00 -- -- -- -- -- -- -- -- --
2018-01-07 04:00:00 -- -- -- -- -- -- -- -- --
2018-01-07 03:00:00 -- -- -- -- -- -- -- -- --
2018-01-07 02:00:00 -- -- -- -- -- -- -- -- --
2018-01-07 01:00:00 -- -- -- -- -- -- -- -- --
2018-01-07 00:00:00 -- -- -- -- -- -- -- -- --
2018-01-06 23:00:00 -- -- -- -- -- -- -- -- --
2018-01-06 22:00:00 -- -- -- -- -- -- -- -- --
2018-01-06 21:00:00 -- -- -- -- -- -- -- -- --
2018-01-06 20:00:00 -- -- -- -- -- -- -- -- --
2018-01-06 19:00:00 2.6 16 Noroeste 33 Norte 2.4 -- -- 89
2018-01-06 18:00:00 3.1 19 Norte 34 Noroeste 0.3 -- -- 87
2018-01-06 17:00:00 4.4 13 Noroeste 22 Noroeste 0.4 -- -- 87
2018-01-06 16:00:00 4.6 10 Noroeste 17 Noroeste 0.5 -- -- 87
2018-01-06 15:00:00 4.3 10 Noroeste 19 Noroeste 0.4 -- -- 87
2018-01-06 14:00:00 4.3 11 Noroeste 18 Noroeste 0.4 -- -- 88
2018-01-06 13:00:00 4.1 10 Norte 19 Norte 0.4 -- -- 88
2018-01-06 12:00:00 3.8 10 Norte 25 Nordeste 0 -- -- 88
2018-01-06 11:00:00 3.5 13 Norte 30 Nordeste 0 -- -- 88
2018-01-06 10:00:00 3.5 16 Norte 41 Nordeste 0.4 -- -- 87
2018-01-06 09:00:00 4.2 18 Norte 31 Nordeste 1.2 -- -- 88
2018-01-06 08:00:00 4.8 13 Norte 22 Norte 1.8 -- -- 88
2018-01-06 07:00:00 5.1 9 Nordeste 27 Nordeste 1.4 -- -- 88
2018-01-06 06:00:00 5.1 15 Nordeste 28 Nordeste 0 -- -- 90
2018-01-06 05:00:00 5.5 8 Norte 18 Norte 0.3 -- -- 90
2018-01-06 04:00:00 5.9 2 Noroeste 7 Noroeste 0.6 -- -- 90
2018-01-06 03:00:00 5.9 2 Oeste 13 Oeste 0.4 -- -- 89
2018-01-06 02:00:00 6.1 0 Calma 17 Noroeste 1.6 -- -- 87
2018-01-06 01:00:00 6.7 4 Noroeste 23 Oeste 1.5 -- -- 87
2018-01-06 00:00:00 8.8 3 Oeste 15 Noroeste 5.3 -- -- 87
2018-01-05 23:00:00 9.2 9 Sur 28 Sur 1.2 -- -- 83
2018-01-05 22:00:00 9.4 6 Sur 14 Sur 0.9 -- -- 80
2018-01-05 21:00:00 9.5 4 Sudeste 8 Sur 0.5 -- -- 81
2018-01-05 20:00:00 9.8 2 Sur 13 Sudoeste 0.5 -- -- 81
2018-01-05 19:00:00 10 3 Este 7 Este 0 -- -- 80
2018-01-05 18:00:00 10.3 2 Norte 9 Oeste 0.2 -- -- 78
2018-01-05 17:00:00 11.1 4 Oeste 19 Sudoeste 0.1 -- -- 67
2018-01-05 16:00:00 11.8 10 Sudoeste 26 Sudoeste 0 -- -- 58
2018-01-05 15:00:00 12.6 10 Sudoeste 26 Sudoeste 0 -- -- 54
2018-01-05 14:00:00 12.4 11 Sudoeste 30 Sudoeste 0 -- -- 53
2018-01-05 13:00:00 13 11 Sudoeste 36 Oeste 0 -- -- 49
2018-01-05 12:00:00 13.2 12 Sudoeste 31 Sudoeste 0 -- -- 50
2018-01-05 11:00:00 11.4 12 Sudoeste 27 Sudoeste 0 -- -- 60
2018-01-05 10:00:00 10 4 Sur 10 Sudoeste 0 -- -- 73
2018-01-05 09:00:00 9.5 4 Sudoeste 14 Sudoeste 0 -- -- 79
2018-01-05 08:00:00 9.6 6 Noroeste 12 Noroeste 0 -- -- 80
2018-01-05 07:00:00 9.7 2 Sur 13 Sudoeste 0 -- -- 77
2018-01-05 06:00:00 10.1 5 Sudoeste 17 Oeste 0 -- -- 74
2018-01-05 05:00:00 10.4 7 Oeste 22 Oeste 0 -- -- 69
2018-01-05 04:00:00 10.5 8 Oeste 21 Oeste 0 -- -- 68
2018-01-05 03:00:00 10.4 6 Oeste 17 Oeste 0 -- -- 70
2018-01-05 02:00:00 10.1 0 Calma 12 Oeste 0 -- -- 74
2018-01-05 01:00:00 10.1 5 Sudoeste 10 Sudoeste 0 -- -- 78
2018-01-05 00:00:00 9 3 Oeste 9 Noroeste 0 -- -- 85
2018-01-04 23:00:00 8.2 6 Oeste 9 Oeste 0 -- -- 87
2018-01-04 22:00:00 7.2 4 Noroeste 8 Oeste 0 -- -- 84
2018-01-04 21:00:00 8.4 3 Oeste 8 Noroeste 0 -- -- 82
2018-01-04 20:00:00 9.6 6 Oeste 10 Sudoeste 0 -- -- 79
2018-01-04 19:00:00 10.7 4 Oeste 19 Oeste 0 -- -- 75
2018-01-04 18:00:00 12.2 7 Oeste 23 Oeste 0 -- -- 70
2018-01-04 17:00:00 13 11 Oeste 23 Oeste 0 -- -- 68
2018-01-04 16:00:00 14.4 12 Oeste 35 Oeste 0 -- -- 58
2018-01-04 15:00:00 14.2 12 Oeste 31 Oeste 0 -- -- 67
2018-01-04 14:00:00 12.7 9 Oeste 32 Oeste 0 -- -- 73
2018-01-04 13:00:00 13.2 16 Oeste 35 Oeste 0 -- -- 71
2018-01-04 12:00:00 12 12 Oeste 25 Oeste 0 -- -- 91
2018-01-04 11:00:00 10.6 5 Oeste 12 Oeste 0 -- -- 93
2018-01-04 10:00:00 9.1 4 Oeste 9 Oeste 0 -- -- 93
2018-01-04 09:00:00 8.5 0 Calma 7 Oeste 0 -- -- 93
2018-01-04 08:00:00 8.9 5 Oeste 9 Oeste 0 -- -- 93
2018-01-04 07:00:00 7.9 0 Calma 0 Calma 0 -- -- 93
2018-01-04 06:00:00 7.5 2 Norte 5 Norte 0 -- -- 93
2018-01-04 05:00:00 6.5 0 Calma -- -- 0 -- -- 93
2018-01-04 04:00:00 6.1 0 Calma 4 Oeste 0 -- -- 92
2018-01-04 03:00:00 7.4 2 Noroeste 6 Noroeste 0 -- -- 92
2018-01-04 02:00:00 7.4 3 Noroeste 8 Noroeste 0 -- -- 92
2018-01-04 01:00:00 8.7 0 Calma 10 Oeste 0 -- -- 91
2018-01-04 00:00:00 8.5 4 Noroeste 10 Oeste 0 -- -- 90
2018-01-03 23:00:00 9.5 6 Oeste 13 Oeste 0 -- -- 90
2018-01-03 22:00:00 9.5 5 Oeste 13 Sudoeste 0 -- -- 88
2018-01-03 21:00:00 9.9 3 Oeste 11 Oeste 0 -- -- 86
2018-01-03 20:00:00 11.1 9 Noroeste 19 Noroeste 0 -- -- 84
2018-01-03 19:00:00 11.4 9 Oeste 20 Oeste 0 -- -- 82
2018-01-03 18:00:00 11.6 10 Oeste 20 Oeste 0 -- -- 80
2018-01-03 17:00:00 12.2 8 Oeste 22 Oeste 0 -- -- 76
2018-01-03 16:00:00 13 12 Oeste 24 Noroeste 0 -- -- 72
2018-01-03 15:00:00 13 10 Oeste 24 Oeste 0 -- -- 72
2018-01-03 14:00:00 12.7 9 Oeste 19 Oeste 0 -- -- 76
2018-01-03 13:00:00 11.9 10 Oeste 19 Oeste 0 -- -- 80
2018-01-03 12:00:00 11.4 11 Oeste 22 Oeste 0 -- -- 82
2018-01-03 11:00:00 11 7 Oeste 20 Sudoeste 0 -- -- 85
2018-01-03 10:00:00 10.4 6 Oeste 21 Oeste 0 -- -- 89
2018-01-03 09:00:00 10.2 8 Oeste 23 Oeste 0 -- -- 90
2018-01-03 08:00:00 10.1 8 Oeste 26 Noroeste 0 -- -- 90
2018-01-03 07:00:00 10 9 Oeste 26 Oeste 0 -- -- 90
2018-01-03 06:00:00 10 8 Oeste 19 Oeste 0 -- -- 90
2018-01-03 05:00:00 10 8 Sudoeste 23 Oeste 0 -- -- 88
2018-01-03 04:00:00 10.2 8 Oeste 21 Sudoeste 0 -- -- 87
2018-01-03 03:00:00 10.4 6 Sudoeste 19 Oeste 0 -- -- 86
2018-01-03 02:00:00 10.4 9 Oeste 19 Sudoeste 0 -- -- 86
2018-01-03 01:00:00 10.2 11 Sudoeste 18 Oeste 0 -- -- 86
2018-01-03 00:00:00 9.8 9 Oeste 21 Oeste 0 -- -- 86
2018-01-02 23:00:00 9 6 Oeste 15 Oeste 0 -- -- 86
2018-01-02 22:00:00 8.5 4 Oeste 13 Oeste 0 -- -- 84
2018-01-02 21:00:00 8.2 4 Oeste 9 Noroeste 0 -- -- 84
2018-01-02 20:00:00 8.5 5 Oeste 9 Oeste 0 -- -- 78
2018-01-02 19:00:00 10.2 6 Oeste 15 Oeste 0 -- -- 74
2018-01-02 18:00:00 11 9 Oeste 26 Oeste 0 -- -- 68
2018-01-02 17:00:00 12.1 11 Oeste 26 Oeste 0 -- -- 62
2018-01-02 16:00:00 12.7 10 Oeste 23 Oeste 0 -- -- 58
2018-01-02 15:00:00 12.7 11 Oeste 24 Oeste 0 -- -- 59
2018-01-02 14:00:00 12 8 Oeste 25 Oeste 0 -- -- 61
2018-01-02 13:00:00 11.8 11 Oeste 26 Oeste 0 -- -- 64
2018-01-02 12:00:00 10.5 11 Oeste 25 Oeste 0 -- -- 70
2018-01-02 11:00:00 8.7 6 Oeste 15 Sudoeste 0 -- -- 83
2018-01-02 10:00:00 6 6 Oeste -- -- -- -- -- 91
2018-01-02 09:00:00 5.4 6 Oeste 19 Oeste 0 -- -- 91
2018-01-02 08:00:00 4.9 6 Oeste 14 Oeste 0 -- -- 90
2018-01-02 07:00:00 4.3 3 Este 6 Este 0 -- -- 89
2018-01-02 06:00:00 5.4 0 Calma 17 Oeste 0 -- -- 88
2018-01-02 05:00:00 6.5 8 Oeste 19 Oeste 0 -- -- 87
2018-01-02 04:00:00 7.3 12 Oeste 28 Oeste 0 -- -- 84
2018-01-02 03:00:00 7.8 11 Oeste 28 Oeste 0 -- -- 85
2018-01-02 02:00:00 7.9 14 Oeste 26 Oeste 0 -- -- 85
2018-01-02 01:00:00 7.8 13 Oeste 26 Oeste 0 -- -- 85
2018-01-02 00:00:00 7.8 11 Oeste 32 Noroeste 0 -- -- 84
2018-01-01 23:00:00 7.3 14 Oeste 24 Oeste 0 -- -- 84
2018-01-01 22:00:00 7.7 11 Oeste 28 Oeste 0 -- -- 80
2018-01-01 21:00:00 8.9 16 Oeste 32 Oeste 0 -- -- 75
2018-01-01 20:00:00 9 13 Oeste 30 Noroeste 0 -- -- 73
2018-01-01 19:00:00 9.2 14 Oeste 37 Oeste 0 -- -- 71
2018-01-01 18:00:00 9.7 15 Oeste 33 Noroeste 0 -- -- 66
2018-01-01 17:00:00 10.2 15 Oeste 38 Oeste 0 -- -- 61
2018-01-01 16:00:00 11.1 18 Oeste 41 Oeste 0 -- -- 59
2018-01-01 15:00:00 10.8 22 Oeste 42 Oeste 0 -- -- 58
2018-01-01 14:00:00 10.1 19 Oeste 40 Oeste 0 -- -- 60
2018-01-01 13:00:00 10.1 10 Oeste 23 Sudoeste 0 -- -- 60
2018-01-01 12:00:00 8.7 7 Sudoeste 14 Sudoeste 0 -- -- 58
2018-01-01 11:00:00 6.9 5 Oeste 10 Oeste 0 -- -- 74
2018-01-01 10:00:00 3.4 0 Calma 5 Sur 0 -- -- 91
2018-01-01 09:00:00 0.4 2 Este 8 Este 0 -- -- 91
2018-01-01 08:00:00 0.1 0 Calma 6 Sudeste 0 -- -- 89
2018-01-01 07:00:00 0.7 0 Calma 6 Este 0 -- -- 88
2018-01-01 06:00:00 2.4 7 Este 10 Este 0 -- -- 88
2018-01-01 05:00:00 2.6 3 Sudeste 8 Noroeste 0 -- -- 87
2018-01-01 04:00:00 3.4 5 Oeste 11 Oeste 0 -- -- 83
2018-01-01 03:00:00 5.4 6 Oeste 18 Oeste 0 -- -- 74
2018-01-01 02:00:00 5.5 9 Oeste 19 Noroeste 0 -- -- 66
2018-01-01 01:00:00 6.2 10 Noroeste 21 Oeste 0 -- -- 64
2018-01-01 00:00:00 6.1 9 Oeste 17 Oeste 0 -- -- 70
2017-12-31 23:00:00 6.5 10 Oeste 20 Oeste 0 -- -- 71
2017-12-31 22:00:00 7.4 14 Noroeste 28 Noroeste 0 -- -- 70
2017-12-31 21:00:00 7 3 Oeste 10 Noroeste 0 -- -- 85
2017-12-31 20:00:00 8.7 5 Oeste 44 Noroeste 1 -- -- 82
2017-12-31 19:00:00 8.4 21 Noroeste 39 Noroeste 1.4 -- -- 83
2017-12-31 18:00:00 11.3 12 Oeste 34 Oeste 0 -- -- 65
2017-12-31 17:00:00 12.4 13 Oeste 32 Oeste 0 -- -- 57
2017-12-31 16:00:00 13.4 11 Oeste 29 Oeste 0 -- -- 53
2017-12-31 15:00:00 13 12 Oeste 30 Oeste 0 -- -- 54
2017-12-31 14:00:00 12.7 7 Sudoeste 27 Oeste 0 -- -- 61
2017-12-31 13:00:00 12.4 10 Oeste 22 Sudoeste 0 -- -- 64
2017-12-31 12:00:00 10.3 4 Sudeste 15 Este 0 -- -- 79
2017-12-31 11:00:00 7.5 11 Sudeste 15 Sudeste 0 -- -- 88
2017-12-31 10:00:00 5.9 9 Este 14 Sudeste 0 -- -- 90
2017-12-31 09:00:00 5.2 5 Este 15 Este 0 -- -- 90
2017-12-31 08:00:00 5.4 9 Este 16 Sudeste 0 -- -- 90
2017-12-31 07:00:00 5.9 9 Este 13 Este 0 -- -- 90
2017-12-31 06:00:00 6.1 8 Sudeste 12 Este 0 -- -- 90
2017-12-31 05:00:00 5.8 7 Este 13 Este 0 -- -- 90
2017-12-31 04:00:00 5.7 6 Sudeste 17 Este 0 -- -- 90
2017-12-31 03:00:00 5.6 10 Sudeste 16 Este 0 -- -- 90
2017-12-31 02:00:00 5.8 8 Este 13 Sudeste 0 -- -- 90
2017-12-31 01:00:00 5 8 Este 20 Sudeste 0 -- -- 89